Spirit Lake, South Dakota
Current Conditions -  °F | °C
As of 2:53 AM on Wednesday 22 Oct 2014 (Local Time) from KATY Reporting Station
Clear Clear  
Wind Chill: 53°   Ceiling: Unl
Heat Index: 53°   Visibility: 10mi
Dew Point: 42°   Wind: 18mph
Humidity: 66%   Direction: 160°SSE
Pressure: 29.94"   Gusts: 29mph
Location:  44.4924°N, 97.4007°W
Report Text: KATY 220753Z AUTO 16016G25KT 10SM CLR 12/06 A2994 RMK AO2 PK WND 16026/0706 SLP135 T01170056
Loading
Personal Weather Stations






























Interactive Weather Map
Tropical Storm Tracking
New forecast layout! Learn more

10-Day Weather Forecast

Advertisements
Track Severe Weather on mobile